Terminal Aerodrome Forecast
Issued by NWS Denver/Boulder, CO

Home | Current Version | Previous Version | Text Only | Print | Product List | Glossary On
Versions: 1 2 3 4 5 6 7 8 9 10 11 12 13 14 15 16 17 18 19 20 21 22 23 24 25 26 27 28 29 30 31 32 33 34 35 36 37 38 39 40 41 42 43 44 45 46 47 48 49 50
000
FTUS45 KBOU 040211 AAA
TAFDEN
TAF AMD
KDEN 040211Z 0402/0506 14009KT P6SM SCT060 BKN140
     FM040600 21009KT P6SM FEW120 SCT200
     FM041500 24006KT P6SM FEW090 FEW200
     FM042000 36005KT P6SM SCT080 SCT120
     FM042300 02008KT P6SM VCTS SCT080CB SCT120
     FM050200 05007KT P6SM SCT080 BKN120=

USA.gov is the U.S. government's official web portal to all federal, state and local government web resources and services.